createdAt,value
2023-03-01T00:02:00.974Z,8.10
2023-03-01T00:04:29.263Z,8.37
2023-03-01T00:06:56.996Z,7.87
2023-03-01T00:09:24.870Z,8.30
2023-03-01T00:11:52.591Z,8.03
2023-03-01T00:14:20.400Z,8.10
2023-03-01T00:16:48.577Z,7.70
2023-03-01T00:19:19.546Z,7.53
2023-03-01T00:21:48.037Z,7.47
2023-03-01T00:24:16.409Z,6.63
2023-03-01T00:26:44.261Z,6.53
2023-03-01T00:29:12.032Z,6.87
2023-03-01T00:31:39.802Z,7.10
2023-03-01T00:34:07.750Z,6.27
2023-03-01T00:36:39.109Z,6.60
2023-03-01T00:39:12.532Z,6.43
2023-03-01T00:41:41.129Z,6.60
2023-03-01T00:44:09.851Z,6.03
2023-03-01T00:46:37.813Z,7.23
2023-03-01T00:49:06.453Z,6.83
2023-03-01T00:51:35.901Z,7.00
2023-03-01T00:54:04.712Z,6.60
2023-03-01T00:56:33.739Z,6.43
2023-03-01T00:59:01.801Z,6.67
2023-03-01T01:01:32.369Z,6.87
2023-03-01T01:04:02.632Z,7.00
2023-03-01T01:06:33.120Z,6.73
2023-03-01T01:09:02.589Z,6.73
2023-03-01T01:11:31.466Z,6.63
2023-03-01T01:14:00.808Z,6.10
2023-03-01T01:16:32.104Z,5.70
2023-03-01T01:19:00.132Z,6.60
2023-03-01T01:21:29.446Z,6.50
2023-03-01T01:23:58.534Z,6.70
2023-03-01T01:26:30.446Z,6.60
2023-03-01T01:28:59.388Z,6.77
2023-03-01T01:31:27.909Z,6.40
2023-03-01T01:33:58.593Z,6.73
2023-03-01T01:36:26.489Z,6.23
2023-03-01T01:38:55.098Z,6.50
2023-03-01T01:41:23.433Z,6.77
2023-03-01T01:44:14.122Z,6.73
2023-03-01T01:46:43.642Z,6.43
2023-03-01T01:49:25.576Z,6.37
2023-03-01T01:51:59.073Z,6.20
2023-03-01T01:54:31.232Z,6.20
2023-03-01T01:57:04.806Z,6.67
2023-03-01T01:59:35.557Z,6.70
2023-03-01T02:02:06.974Z,6.40
2023-03-01T02:04:37.823Z,6.67
2023-03-01T02:07:11.207Z,6.60
2023-03-01T02:09:39.527Z,6.60
2023-03-01T02:12:08.164Z,6.40
2023-03-01T02:14:37.352Z,6.90
2023-03-01T02:17:05.283Z,6.50
2023-03-01T02:19:42.679Z,7.30
2023-03-01T02:22:22.782Z,6.87
2023-03-01T02:25:02.932Z,5.67
2023-03-01T02:27:39.145Z,6.77
2023-03-01T02:30:13.239Z,6.67
2023-03-01T02:32:42.665Z,6.60
2023-03-01T02:35:12.537Z,6.87
2023-03-01T02:37:42.054Z,6.73
2023-03-01T02:40:13.620Z,7.30
2023-03-01T02:42:49.544Z,6.70
2023-03-01T02:45:18.941Z,6.87
2023-03-01T02:47:46.839Z,7.00
2023-03-01T02:50:24.658Z,7.50
2023-03-01T02:53:00.727Z,7.70
2023-03-01T02:55:29.832Z,7.00
2023-03-01T02:57:58.975Z,7.13
2023-03-01T03:00:34.242Z,6.87
2023-03-01T03:03:02.078Z,6.37
2023-03-01T03:05:31.704Z,7.20
2023-03-01T03:08:02.278Z,7.23
2023-03-01T03:10:35.920Z,6.53
2023-03-01T03:13:06.798Z,7.27
2023-03-01T03:15:37.448Z,6.40
2023-03-01T03:18:08.020Z,7.73
2023-03-01T03:20:36.571Z,7.27
2023-03-01T03:23:04.696Z,7.50
2023-03-01T03:25:32.452Z,7.03
2023-03-01T03:28:00.911Z,7.00
2023-03-01T03:30:31.580Z,7.03
2023-03-01T03:33:01.465Z,7.00
2023-03-01T03:35:32.072Z,7.33
2023-03-01T03:38:03.518Z,7.77
2023-03-01T03:40:33.472Z,8.07
2023-03-01T03:43:01.191Z,7.60
2023-03-01T03:45:29.595Z,8.10
2023-03-01T03:48:05.821Z,8.77
2023-03-01T03:50:33.974Z,7.93
2023-03-01T03:53:02.590Z,8.03
2023-03-01T03:55:31.600Z,8.33
2023-03-01T03:58:03.099Z,8.47
2023-03-01T04:00:31.332Z,8.53
2023-03-01T04:02:59.125Z,7.97
2023-03-01T04:05:29.519Z,7.77
2023-03-01T04:08:08.186Z,7.97
2023-03-01T04:10:38.542Z,7.80
2023-03-01T04:13:06.687Z,8.60
2023-03-01T04:15:35.327Z,8.20
2023-03-01T04:18:03.851Z,8.20
2023-03-01T04:20:35.825Z,8.07
2023-03-01T04:23:11.564Z,7.83
2023-03-01T04:25:42.495Z,8.23
2023-03-01T04:28:11.787Z,8.07
2023-03-01T04:30:40.519Z,7.77
2023-03-01T04:33:09.825Z,7.93
2023-03-01T04:35:39.994Z,8.43
2023-03-01T04:38:08.402Z,9.03
2023-03-01T04:40:36.371Z,8.47
2023-03-01T04:43:05.693Z,8.57
2023-03-01T04:45:36.448Z,8.50
2023-03-01T04:48:07.896Z,7.87
2023-03-01T04:50:35.656Z,7.93
2023-03-01T04:53:05.420Z,8.17
2023-03-01T04:55:33.359Z,8.00
2023-03-01T04:58:01.229Z,7.93
2023-03-01T05:00:28.950Z,9.67
2023-03-01T05:02:58.928Z,8.63
2023-03-01T05:05:28.929Z,8.37
2023-03-01T05:07:58.638Z,8.50
2023-03-01T05:10:30.031Z,8.70
2023-03-01T05:13:05.538Z,8.80
2023-03-01T05:15:34.117Z,9.30
2023-03-01T05:18:12.334Z,8.87
2023-03-01T05:20:40.557Z,8.97
2023-03-01T05:23:08.769Z,8.73
2023-03-01T05:25:41.269Z,8.90
2023-03-01T05:28:13.636Z,8.93
2023-03-01T05:30:42.594Z,8.33
2023-03-01T05:33:14.672Z,9.30
2023-03-01T05:35:44.048Z,9.43
2023-03-01T05:38:14.148Z,8.80
2023-03-01T05:40:44.826Z,8.33
2023-03-01T05:43:13.739Z,9.00
2023-03-01T05:45:42.963Z,8.77
2023-03-01T05:48:11.782Z,8.63
2023-03-01T05:50:41.299Z,9.40
2023-03-01T05:53:11.284Z,9.60
2023-03-01T05:55:40.319Z,9.33
2023-03-01T05:58:12.098Z,8.80
2023-03-01T06:00:40.508Z,9.27
2023-03-01T06:03:08.465Z,9.17
2023-03-01T06:05:36.339Z,8.97
2023-03-01T06:08:05.047Z,9.30
2023-03-01T06:10:33.162Z,9.87
2023-03-01T06:13:01.354Z,9.17
2023-03-01T06:15:30.752Z,9.23
2023-03-01T06:18:00.309Z,9.23
2023-03-01T06:20:30.135Z,9.03
2023-03-01T06:22:58.676Z,8.83
2023-03-01T06:25:28.562Z,9.83
2023-03-01T06:27:56.357Z,8.97
2023-03-01T06:30:26.163Z,9.13
2023-03-01T06:33:01.651Z,9.93
2023-03-01T06:35:30.862Z,9.20
2023-03-01T06:37:59.884Z,9.53
2023-03-01T06:40:28.088Z,10.00
2023-03-01T06:42:55.911Z,10.53
2023-03-01T06:45:23.817Z,9.43
2023-03-01T06:47:51.632Z,10.07
2023-03-01T06:50:21.191Z,10.97
2023-03-01T06:52:49.143Z,10.23
2023-03-01T06:55:17.272Z,11.77
2023-03-01T06:57:45.064Z,10.70
2023-03-01T07:00:14.081Z,10.97
2023-03-01T07:02:41.888Z,11.27
2023-03-01T07:05:10.149Z,12.73
2023-03-01T07:07:39.258Z,10.87
2023-03-01T07:10:08.589Z,11.40
2023-03-01T07:12:38.719Z,10.90
2023-03-01T07:15:07.607Z,11.97
2023-03-01T07:17:35.529Z,10.70
2023-03-01T07:20:03.436Z,11.70
2023-03-01T07:22:31.127Z,11.50
2023-03-01T07:25:00.227Z,11.17
2023-03-01T07:27:28.013Z,11.47
2023-03-01T07:29:55.781Z,11.73
2023-03-01T07:32:25.073Z,11.97
2023-03-01T07:34:53.424Z,12.00
2023-03-01T07:37:21.346Z,11.53
2023-03-01T07:39:49.193Z,11.63
2023-03-01T07:42:18.405Z,12.27
2023-03-01T07:44:50.308Z,11.67
2023-03-01T07:47:24.351Z,12.03
2023-03-01T07:49:52.191Z,11.27
2023-03-01T07:52:19.976Z,11.53
2023-03-01T07:54:47.750Z,12.40
2023-03-01T07:57:15.662Z,12.97
2023-03-01T07:59:44.800Z,13.10
2023-03-01T08:02:12.936Z,13.53
2023-03-01T08:04:40.760Z,12.53
2023-03-01T08:07:08.524Z,12.00
2023-03-01T08:09:36.696Z,13.23
2023-03-01T08:12:05.482Z,12.80
2023-03-01T08:14:33.385Z,12.63
2023-03-01T08:17:03.881Z,12.40
2023-03-01T08:19:32.156Z,12.70
2023-03-01T08:22:00.837Z,12.57
2023-03-01T08:24:28.709Z,10.83
2023-03-01T08:26:56.828Z,11.77
2023-03-01T08:29:25.561Z,10.50
2023-03-01T08:31:53.536Z,10.83
2023-03-01T08:34:22.780Z,10.70
2023-03-01T08:36:51.139Z,10.90
2023-03-01T08:39:21.113Z,10.93
2023-03-01T08:41:49.421Z,10.77
2023-03-01T08:44:18.602Z,10.30
2023-03-01T08:46:47.552Z,10.60
2023-03-01T08:49:17.289Z,10.03
2023-03-01T08:51:47.735Z,10.83
2023-03-01T08:54:19.056Z,9.67
2023-03-01T08:56:47.255Z,9.87
2023-03-01T08:59:16.689Z,9.83
2023-03-01T09:01:45.197Z,9.60
2023-03-01T09:04:13.649Z,10.37
2023-03-01T09:06:41.895Z,10.10
2023-03-01T09:09:16.736Z,9.63
2023-03-01T09:11:46.864Z,9.63
2023-03-01T09:14:14.770Z,9.10
2023-03-01T09:16:42.613Z,9.00
2023-03-01T09:19:10.716Z,8.17
2023-03-01T09:21:41.113Z,8.80
2023-03-01T09:24:16.524Z,8.63
2023-03-01T09:26:47.572Z,8.63
2023-03-01T09:29:17.200Z,9.13
2023-03-01T09:31:45.098Z,8.50
2023-03-01T09:34:14.638Z,9.23
2023-03-01T09:36:42.633Z,9.20
2023-03-01T09:39:10.447Z,8.93
2023-03-01T09:41:56.449Z,8.97
2023-03-01T09:44:36.259Z,9.77
2023-03-01T09:47:04.999Z,8.13
2023-03-01T09:49:35.546Z,9.03
2023-03-01T09:52:11.640Z,8.30
2023-03-01T09:54:39.575Z,9.50
2023-03-01T09:57:19.546Z,9.27
2023-03-01T10:00:11.436Z,8.90
2023-03-01T10:02:44.564Z,8.97
2023-03-01T10:05:27.191Z,9.23
2023-03-01T10:08:08.551Z,8.53
2023-03-01T10:10:39.371Z,8.57
2023-03-01T10:13:17.185Z,8.67
2023-03-01T10:15:49.634Z,8.67
2023-03-01T10:18:21.188Z,9.40
2023-03-01T10:20:54.612Z,8.73
2023-03-01T10:23:22.648Z,9.00
2023-03-01T10:26:06.149Z,9.50
2023-03-01T10:28:47.013Z,9.10
2023-03-01T10:31:16.993Z,8.30
2023-03-01T10:33:45.026Z,8.67
2023-03-01T10:36:12.744Z,8.93
2023-03-01T10:38:53.365Z,8.63
2023-03-01T10:41:21.592Z,9.13
2023-03-01T10:43:52.862Z,9.20
2023-03-01T10:46:26.587Z,8.67
2023-03-01T10:49:16.606Z,8.17
2023-03-01T10:51:47.073Z,7.80
2023-03-01T10:54:20.058Z,8.30
2023-03-01T10:56:50.297Z,8.30
2023-03-01T10:59:28.608Z,8.10
2023-03-01T11:02:25.320Z,8.57
2023-03-01T11:05:02.225Z,9.07
2023-03-01T11:07:30.616Z,8.90
2023-03-01T11:09:58.529Z,8.30
2023-03-01T11:12:26.545Z,8.87
2023-03-01T11:14:57.068Z,9.07
2023-03-01T11:17:28.910Z,7.80
2023-03-01T11:20:07.352Z,8.23
2023-03-01T11:22:37.690Z,8.00
2023-03-01T11:25:13.561Z,8.53
2023-03-01T11:27:46.589Z,8.70
2023-03-01T11:30:21.992Z,8.27
2023-03-01T11:32:57.318Z,8.00
2023-03-01T11:35:28.257Z,9.80
2023-03-01T11:38:07.111Z,9.17
2023-03-01T11:40:44.030Z,8.57
2023-03-01T11:43:21.301Z,8.43
2023-03-01T11:46:31.461Z,8.50
2023-03-01T11:49:15.579Z,8.33
2023-03-01T11:51:51.788Z,8.20
2023-03-01T11:54:35.578Z,7.97
2023-03-01T11:57:13.949Z,8.07
2023-03-01T12:00:01.448Z,8.30
2023-03-01T12:03:00.683Z,8.33
2023-03-01T12:05:50.658Z,7.53
2023-03-01T12:08:27.639Z,8.20
2023-03-01T12:11:05.554Z,8.73
2023-03-01T12:14:07.041Z,8.60
2023-03-01T12:16:56.443Z,8.40
2023-03-01T12:19:43.696Z,8.07
2023-03-01T12:22:23.120Z,7.90
2023-03-01T12:25:14.427Z,8.13
2023-03-01T12:28:04.356Z,8.40
2023-03-01T12:30:45.635Z,8.07
2023-03-01T12:33:21.888Z,8.18
2023-03-01T12:36:28.688Z,8.00
2023-03-01T12:39:08.950Z,7.60
2023-03-01T12:41:48.036Z,8.18
2023-03-01T12:44:31.384Z,7.57
2023-03-01T12:47:13.309Z,7.82
2023-03-01T12:49:45.197Z,6.70
2023-03-01T12:52:23.362Z,7.85
2023-03-01T12:54:53.422Z,7.87
2023-03-01T12:57:38.073Z,7.73
2023-03-01T13:00:24.899Z,8.05
2023-03-01T13:03:01.004Z,8.00
2023-03-01T13:05:41.416Z,8.30
2023-03-01T13:08:18.966Z,8.23
2023-03-01T13:10:52.190Z,8.57
2023-03-01T13:13:25.036Z,8.53
2023-03-01T13:15:54.156Z,6.90
2023-03-01T13:18:33.046Z,6.70
2023-03-01T13:21:03.095Z,7.50
2023-03-01T13:23:35.971Z,6.83
2023-03-01T13:26:12.214Z,6.80
2023-03-01T13:28:43.074Z,7.40
2023-03-01T13:31:12.576Z,7.30
2023-03-01T13:33:49.718Z,7.55
2023-03-01T13:36:48.337Z,7.25
2023-03-01T13:39:42.374Z,6.50
2023-03-01T13:42:32.675Z,6.25
2023-03-01T13:45:01.026Z,6.93
2023-03-01T13:47:29.883Z,7.00
2023-03-01T13:50:00.218Z,6.93
2023-03-01T13:52:37.469Z,6.53
2023-03-01T13:55:17.968Z,7.80
2023-03-01T13:57:49.392Z,6.57
2023-03-01T14:00:38.374Z,6.82
2023-03-01T14:03:12.618Z,6.97
2023-03-01T14:05:40.890Z,7.03
2023-03-01T14:08:21.817Z,6.80
2023-03-01T14:11:24.308Z,7.55
2023-03-01T14:14:16.678Z,7.57
2023-03-01T14:16:54.977Z,6.95
2023-03-01T14:19:34.625Z,5.80
2023-03-01T14:22:14.770Z,6.53
2023-03-01T14:24:48.570Z,6.57
2023-03-01T14:27:19.161Z,7.25
2023-03-01T14:29:57.048Z,7.75
2023-03-01T14:32:28.597Z,7.75
2023-03-01T14:34:56.858Z,7.55
2023-03-01T14:37:27.501Z,8.27
2023-03-01T14:39:56.666Z,6.80
2023-03-01T14:42:30.248Z,8.32
2023-03-01T14:44:59.933Z,6.40
2023-03-01T14:47:30.698Z,7.63
2023-03-01T14:50:01.439Z,7.40
2023-03-01T14:52:36.902Z,7.28
2023-03-01T14:55:07.870Z,6.50
2023-03-01T14:57:37.443Z,7.18
2023-03-01T15:00:08.926Z,7.57
2023-03-01T15:02:37.559Z,6.40
2023-03-01T15:05:09.054Z,7.05
2023-03-01T15:07:41.469Z,6.17
2023-03-01T15:10:19.666Z,6.40
2023-03-01T15:12:48.884Z,6.63
2023-03-01T15:15:33.543Z,5.68
2023-03-01T15:18:04.099Z,6.05
2023-03-01T15:20:36.223Z,6.47
2023-03-01T15:23:05.631Z,6.45
2023-03-01T15:25:35.288Z,7.60
2023-03-01T15:28:05.028Z,6.88
2023-03-01T15:30:38.698Z,6.47
2023-03-01T15:33:32.231Z,6.53
2023-03-01T15:36:00.910Z,6.40
2023-03-01T15:38:34.458Z,6.53
2023-03-01T15:41:04.102Z,6.33
2023-03-01T15:43:45.423Z,6.50
2023-03-01T15:46:33.325Z,6.63
2023-03-01T15:49:03.822Z,5.90
2023-03-01T15:51:35.431Z,5.73
2023-03-01T15:54:07.495Z,6.07
2023-03-01T15:56:35.423Z,5.93
2023-03-01T15:59:05.615Z,7.00
2023-03-01T16:01:35.245Z,5.60
2023-03-01T16:04:05.151Z,6.13
2023-03-01T16:06:33.613Z,6.10
2023-03-01T16:09:01.604Z,6.40
2023-03-01T16:11:29.388Z,5.97
2023-03-01T16:13:57.230Z,6.10
2023-03-01T16:16:26.403Z,6.13
2023-03-01T16:18:55.677Z,6.00
2023-03-01T16:21:25.684Z,5.67
2023-03-01T16:23:54.712Z,5.80
2023-03-01T16:26:22.734Z,5.13
2023-03-01T16:28:50.863Z,5.70
2023-03-01T16:31:22.774Z,6.13
2023-03-01T16:33:55.562Z,5.93
2023-03-01T16:36:25.405Z,5.70
2023-03-01T16:38:53.889Z,5.60
2023-03-01T16:41:25.078Z,6.80
2023-03-01T16:43:53.051Z,5.70
2023-03-01T16:46:22.818Z,5.63
2023-03-01T16:48:51.555Z,5.83
2023-03-01T16:51:21.231Z,6.07
2023-03-01T16:53:49.209Z,5.93
2023-03-01T16:56:20.572Z,6.50
2023-03-01T16:58:48.692Z,5.40
2023-03-01T17:01:18.542Z,5.70
2023-03-01T17:03:48.339Z,6.00
2023-03-01T17:06:19.009Z,6.07
2023-03-01T17:08:48.508Z,6.37
2023-03-01T17:11:18.422Z,6.23
2023-03-01T17:13:46.890Z,6.37
2023-03-01T17:16:16.982Z,5.70
2023-03-01T17:18:44.879Z,6.60
2023-03-01T17:21:13.620Z,6.03
2023-03-01T17:23:44.450Z,6.27
2023-03-01T17:26:14.205Z,5.83
2023-03-01T17:28:43.819Z,6.03
2023-03-01T17:31:13.139Z,6.03
2023-03-01T17:33:41.017Z,6.20
2023-03-01T17:36:09.026Z,5.63
2023-03-01T17:38:37.365Z,6.87
2023-03-01T17:41:05.902Z,5.97
2023-03-01T17:43:35.888Z,5.93
2023-03-01T17:46:03.790Z,6.20
2023-03-01T17:48:31.529Z,5.87
2023-03-01T17:50:59.368Z,6.10
2023-03-01T17:53:27.839Z,6.67
2023-03-01T17:56:02.047Z,6.70
2023-03-01T17:58:30.294Z,6.23
2023-03-01T18:01:08.705Z,6.63
2023-03-01T18:03:36.796Z,6.43
2023-03-01T18:06:11.075Z,6.37
2023-03-01T18:08:38.863Z,6.60
2023-03-01T18:11:10.164Z,6.30
2023-03-01T18:13:38.270Z,6.63
2023-03-01T18:16:11.477Z,6.63
2023-03-01T18:18:39.869Z,7.23
2023-03-01T18:21:09.947Z,6.73
2023-03-01T18:23:37.844Z,6.70
2023-03-01T18:26:10.809Z,6.73
2023-03-01T18:28:40.133Z,6.77
2023-03-01T18:31:11.764Z,6.20
2023-03-01T18:33:41.192Z,7.07
2023-03-01T18:36:18.423Z,6.73
2023-03-01T18:38:47.315Z,6.50
2023-03-01T18:41:15.968Z,7.03
2023-03-01T18:43:46.984Z,6.90
2023-03-01T18:46:16.453Z,5.93
2023-03-01T18:48:44.891Z,7.10
2023-03-01T18:51:15.271Z,7.13
2023-03-01T18:53:43.706Z,6.77
2023-03-01T18:56:12.612Z,6.93
2023-03-01T18:58:42.443Z,7.30
2023-03-01T19:01:16.733Z,6.60
2023-03-01T19:03:44.726Z,6.70
2023-03-01T19:06:13.007Z,7.23
2023-03-01T19:08:42.357Z,7.10
2023-03-01T19:11:10.599Z,7.40
2023-03-01T19:13:40.334Z,7.57
2023-03-01T19:16:10.942Z,7.53
2023-03-01T19:18:41.808Z,7.13
2023-03-01T19:21:12.128Z,7.20
2023-03-01T19:23:40.014Z,7.27
2023-03-01T19:26:09.801Z,7.70
2023-03-01T19:28:39.764Z,7.37
2023-03-01T19:31:10.201Z,7.30
2023-03-01T19:33:41.210Z,7.40
2023-03-01T19:36:10.213Z,7.90
2023-03-01T19:38:39.000Z,7.50
2023-03-01T19:41:08.887Z,7.13
2023-03-01T19:43:38.865Z,7.83
2023-03-01T19:46:06.693Z,7.60
2023-03-01T19:48:34.695Z,7.73
2023-03-01T19:51:03.937Z,7.03
2023-03-01T19:53:31.761Z,7.33
2023-03-01T19:56:00.264Z,8.37
2023-03-01T19:58:28.841Z,7.97
2023-03-01T20:00:58.803Z,7.07
2023-03-01T20:03:27.486Z,8.20
2023-03-01T20:05:56.569Z,7.80
2023-03-01T20:08:26.613Z,7.57
2023-03-01T20:10:54.366Z,7.43
2023-03-01T20:13:23.135Z,7.53
2023-03-01T20:15:51.030Z,7.70
2023-03-01T20:18:18.775Z,8.50
2023-03-01T20:20:50.030Z,7.13
2023-03-01T20:23:18.014Z,7.37
2023-03-01T20:25:48.521Z,7.47
2023-03-01T20:28:16.750Z,7.40
2023-03-01T20:30:44.544Z,7.50
2023-03-01T20:33:12.451Z,7.33
2023-03-01T20:35:42.753Z,8.20
2023-03-01T20:38:10.834Z,8.13
2023-03-01T20:40:39.001Z,7.60
2023-03-01T20:43:08.062Z,7.53
2023-03-01T20:45:35.825Z,7.47
2023-03-01T20:48:03.666Z,8.17
2023-03-01T20:50:31.362Z,7.27
2023-03-01T20:52:59.127Z,7.87
2023-03-01T20:55:26.963Z,8.03
2023-03-01T20:57:54.763Z,7.57
2023-03-01T21:00:23.946Z,7.73
2023-03-01T21:02:51.743Z,7.40
2023-03-01T21:05:19.883Z,6.83
2023-03-01T21:07:47.917Z,7.77
2023-03-01T21:10:16.106Z,7.77
2023-03-01T21:12:43.916Z,7.00
2023-03-01T21:15:23.512Z,7.27
2023-03-01T21:17:57.465Z,7.57
2023-03-01T21:20:25.356Z,7.90
2023-03-01T21:22:53.154Z,7.30
2023-03-01T21:25:20.884Z,7.93
2023-03-01T21:27:48.707Z,7.80
2023-03-01T21:30:17.178Z,7.60
2023-03-01T21:32:45.091Z,6.93
2023-03-01T21:35:14.228Z,6.87
2023-03-01T21:37:42.021Z,7.63
2023-03-01T21:40:11.421Z,7.47
2023-03-01T21:42:39.324Z,6.70
2023-03-01T21:45:08.012Z,8.20
2023-03-01T21:47:36.177Z,7.70
2023-03-01T21:50:03.927Z,7.40
2023-03-01T21:52:33.074Z,7.43
2023-03-01T21:55:02.947Z,7.93
2023-03-01T21:57:30.843Z,7.23
2023-03-01T21:59:58.596Z,7.27
2023-03-01T22:02:26.360Z,7.33
2023-03-01T22:04:57.647Z,7.57
2023-03-01T22:07:25.419Z,7.73
2023-03-01T22:09:54.666Z,7.40
2023-03-01T22:12:22.379Z,7.33
2023-03-01T22:14:50.098Z,7.97
2023-03-01T22:17:17.917Z,7.90
2023-03-01T22:19:46.305Z,7.57
2023-03-01T22:22:14.103Z,7.90
2023-03-01T22:24:41.880Z,7.83
2023-03-01T22:27:10.993Z,8.13
2023-03-01T22:29:38.731Z,8.57
2023-03-01T22:32:06.833Z,7.67
2023-03-01T22:34:35.815Z,8.00
2023-03-01T22:37:03.674Z,7.90
2023-03-01T22:39:31.408Z,7.90
2023-03-01T22:41:59.189Z,8.30
2023-03-01T22:44:28.375Z,8.43
2023-03-01T22:46:56.156Z,8.77
2023-03-01T22:49:24.238Z,8.43
2023-03-01T22:51:52.741Z,7.87
2023-03-01T22:54:21.589Z,8.40
2023-03-01T22:56:50.062Z,8.07
2023-03-01T22:59:20.805Z,8.53
2023-03-01T23:01:50.213Z,8.57
2023-03-01T23:04:18.466Z,9.03
2023-03-01T23:06:54.029Z,9.13
2023-03-01T23:09:25.023Z,8.63
2023-03-01T23:11:53.239Z,9.10
2023-03-01T23:14:22.226Z,9.93
2023-03-01T23:16:52.629Z,9.73
2023-03-01T23:19:20.565Z,9.77
2023-03-01T23:21:50.500Z,9.87
2023-03-01T23:24:19.716Z,9.37
2023-03-01T23:26:51.846Z,10.53
2023-03-01T23:29:20.094Z,11.07
2023-03-01T23:31:47.844Z,11.03
2023-03-01T23:34:16.978Z,10.80
2023-03-01T23:36:45.861Z,10.43
2023-03-01T23:39:14.841Z,10.43
2023-03-01T23:41:42.838Z,10.60
2023-03-01T23:44:16.517Z,10.33
2023-03-01T23:46:45.217Z,10.10
2023-03-01T23:49:14.811Z,9.70
2023-03-01T23:51:45.452Z,9.50
2023-03-01T23:54:15.385Z,8.93
2023-03-01T23:56:44.742Z,9.10
2023-03-01T23:59:14.873Z,9.37
